sensor_id;sensor_type;location;lat;lon;timestamp;pressure;altitude;pressure_sealevel;temperature
66403;BMP180;53212;52.112;5.144;2024-03-22T00:00:05;102068.20;;;11.30
66403;BMP180;53212;52.112;5.144;2024-03-22T00:02:31;102067.60;;;11.30
66403;BMP180;53212;52.112;5.144;2024-03-22T00:04:56;102065.40;;;11.30
66403;BMP180;53212;52.112;5.144;2024-03-22T00:07:22;102064.80;;;11.30
66403;BMP180;53212;52.112;5.144;2024-03-22T00:09:47;102059.40;;;11.30
66403;BMP180;53212;52.112;5.144;2024-03-22T00:12:13;102050.60;;;11.30
66403;BMP180;53212;52.112;5.144;2024-03-22T00:14:38;102042.80;;;11.30
66403;BMP180;53212;52.112;5.144;2024-03-22T00:17:04;102047.80;;;11.30
66403;BMP180;53212;52.112;5.144;2024-03-22T00:19:29;102033.20;;;11.30
66403;BMP180;53212;52.112;5.144;2024-03-22T00:21:54;102028.20;;;11.30
66403;BMP180;53212;52.112;5.144;2024-03-22T00:24:20;102025.80;;;11.30
66403;BMP180;53212;52.112;5.144;2024-03-22T00:26:45;102021.60;;;11.30
66403;BMP180;53212;52.112;5.144;2024-03-22T00:29:11;102021.20;;;11.30
66403;BMP180;53212;52.112;5.144;2024-03-22T00:31:36;102015.40;;;11.30
66403;BMP180;53212;52.112;5.144;2024-03-22T00:34:01;102015.00;;;11.30
66403;BMP180;53212;52.112;5.144;2024-03-22T00:36:27;102010.40;;;11.30
66403;BMP180;53212;52.112;5.144;2024-03-22T00:38:52;102004.80;;;11.30
66403;BMP180;53212;52.112;5.144;2024-03-22T00:41:18;101986.20;;;11.28
66403;BMP180;53212;52.112;5.144;2024-03-22T00:43:43;101980.20;;;11.28
66403;BMP180;53212;52.112;5.144;2024-03-22T00:46:08;101971.80;;;11.20
66403;BMP180;53212;52.112;5.144;2024-03-22T00:48:34;101970.40;;;11.20
66403;BMP180;53212;52.112;5.144;2024-03-22T00:51:01;101964.40;;;11.20
66403;BMP180;53212;52.112;5.144;2024-03-22T00:53:26;101964.20;;;11.20
66403;BMP180;53212;52.112;5.144;2024-03-22T00:55:52;101963.40;;;11.20
66403;BMP180;53212;52.112;5.144;2024-03-22T00:58:18;101964.80;;;11.20
66403;BMP180;53212;52.112;5.144;2024-03-22T01:00:44;101961.00;;;11.20
66403;BMP180;53212;52.112;5.144;2024-03-22T01:03:10;101959.80;;;11.20
66403;BMP180;53212;52.112;5.144;2024-03-22T01:05:36;101967.80;;;11.20
66403;BMP180;53212;52.112;5.144;2024-03-22T01:08:01;101964.20;;;11.12
66403;BMP180;53212;52.112;5.144;2024-03-22T01:10:27;101959.60;;;11.10
66403;BMP180;53212;52.112;5.144;2024-03-22T01:12:52;101955.60;;;11.10
66403;BMP180;53212;52.112;5.144;2024-03-22T01:15:18;101958.20;;;11.10
66403;BMP180;53212;52.112;5.144;2024-03-22T01:17:43;101957.80;;;11.10
66403;BMP180;53212;52.112;5.144;2024-03-22T01:20:10;101955.20;;;11.10
66403;BMP180;53212;52.112;5.144;2024-03-22T01:22:35;101961.80;;;11.10
66403;BMP180;53212;52.112;5.144;2024-03-22T01:25:02;101960.40;;;11.10
66403;BMP180;53212;52.112;5.144;2024-03-22T01:27:28;101957.20;;;11.10
66403;BMP180;53212;52.112;5.144;2024-03-22T01:29:53;101952.80;;;11.10
66403;BMP180;53212;52.112;5.144;2024-03-22T01:32:19;101956.20;;;11.08
66403;BMP180;53212;52.112;5.144;2024-03-22T01:34:44;101949.60;;;11.10
66403;BMP180;53212;52.112;5.144;2024-03-22T01:37:09;101946.40;;;11.08
66403;BMP180;53212;52.112;5.144;2024-03-22T01:39:35;101944.20;;;11.06
66403;BMP180;53212;52.112;5.144;2024-03-22T01:42:00;101948.60;;;11.04
66403;BMP180;53212;52.112;5.144;2024-03-22T01:44:31;101939.00;;;11.00
66403;BMP180;53212;52.112;5.144;2024-03-22T01:46:57;101942.20;;;11.00
66403;BMP180;53212;52.112;5.144;2024-03-22T01:49:24;101941.00;;;11.00
66403;BMP180;53212;52.112;5.144;2024-03-22T01:51:50;101940.40;;;11.00
66403;BMP180;53212;52.112;5.144;2024-03-22T01:54:16;101937.20;;;10.94
66403;BMP180;53212;52.112;5.144;2024-03-22T01:56:42;101931.00;;;10.90
66403;BMP180;53212;52.112;5.144;2024-03-22T01:59:08;101934.60;;;10.90
66403;BMP180;53212;52.112;5.144;2024-03-22T02:01:35;101938.20;;;10.90
66403;BMP180;53212;52.112;5.144;2024-03-22T02:04:01;101936.60;;;10.90
66403;BMP180;53212;52.112;5.144;2024-03-22T02:06:26;101931.20;;;10.90
66403;BMP180;53212;52.112;5.144;2024-03-22T02:08:52;101932.40;;;10.90
66403;BMP180;53212;52.112;5.144;2024-03-22T02:11:17;101932.20;;;10.80
66403;BMP180;53212;52.112;5.144;2024-03-22T02:13:44;101926.40;;;10.80
66403;BMP180;53212;52.112;5.144;2024-03-22T02:16:09;101923.80;;;10.80
66403;BMP180;53212;52.112;5.144;2024-03-22T02:18:35;101923.20;;;10.70
66403;BMP180;53212;52.112;5.144;2024-03-22T02:21:01;101919.00;;;10.70
66403;BMP180;53212;52.112;5.144;2024-03-22T02:23:34;101923.00;;;10.70
66403;BMP180;53212;52.112;5.144;2024-03-22T02:26:01;101921.60;;;10.70
66403;BMP180;53212;52.112;5.144;2024-03-22T02:28:26;101916.40;;;10.70
66403;BMP180;53212;52.112;5.144;2024-03-22T02:30:52;101915.20;;;10.70
66403;BMP180;53212;52.112;5.144;2024-03-22T02:33:18;101907.60;;;10.60
66403;BMP180;53212;52.112;5.144;2024-03-22T02:35:46;101909.60;;;10.60
66403;BMP180;53212;52.112;5.144;2024-03-22T02:38:11;101908.20;;;10.60
66403;BMP180;53212;52.112;5.144;2024-03-22T02:40:37;101899.00;;;10.60
66403;BMP180;53212;52.112;5.144;2024-03-22T02:43:03;101893.80;;;10.60
66403;BMP180;53212;52.112;5.144;2024-03-22T02:45:31;101893.80;;;10.60
66403;BMP180;53212;52.112;5.144;2024-03-22T02:47:57;101886.60;;;10.50
66403;BMP180;53212;52.112;5.144;2024-03-22T02:50:22;101876.40;;;10.50
66403;BMP180;53212;52.112;5.144;2024-03-22T02:52:49;101877.20;;;10.50
66403;BMP180;53212;52.112;5.144;2024-03-22T02:55:15;101870.80;;;10.50
66403;BMP180;53212;52.112;5.144;2024-03-22T02:57:40;101854.20;;;10.50
66403;BMP180;53212;52.112;5.144;2024-03-22T03:00:06;101841.20;;;10.50
66403;BMP180;53212;52.112;5.144;2024-03-22T03:02:32;101841.00;;;10.50
66403;BMP180;53212;52.112;5.144;2024-03-22T03:04:57;101830.60;;;10.50
66403;BMP180;53212;52.112;5.144;2024-03-22T03:07:24;101827.00;;;10.50
66403;BMP180;53212;52.112;5.144;2024-03-22T03:09:50;101825.00;;;10.40
66403;BMP180;53212;52.112;5.144;2024-03-22T03:12:15;101831.00;;;10.30
66403;BMP180;53212;52.112;5.144;2024-03-22T03:14:41;101832.60;;;10.30
66403;BMP180;53212;52.112;5.144;2024-03-22T03:17:07;101823.60;;;10.30
66403;BMP180;53212;52.112;5.144;2024-03-22T03:19:33;101822.80;;;10.30
66403;BMP180;53212;52.112;5.144;2024-03-22T03:21:58;101819.40;;;10.26
66403;BMP180;53212;52.112;5.144;2024-03-22T03:24:24;101818.80;;;10.28
66403;BMP180;53212;52.112;5.144;2024-03-22T03:26:49;101807.60;;;10.20
66403;BMP180;53212;52.112;5.144;2024-03-22T03:29:15;101801.00;;;10.28
66403;BMP180;53212;52.112;5.144;2024-03-22T03:31:40;101797.40;;;10.20
66403;BMP180;53212;52.112;5.144;2024-03-22T03:34:05;101795.60;;;10.20
66403;BMP180;53212;52.112;5.144;2024-03-22T03:36:31;101787.80;;;10.10
66403;BMP180;53212;52.112;5.144;2024-03-22T03:38:56;101776.80;;;10.10
66403;BMP180;53212;52.112;5.144;2024-03-22T03:41:22;101776.20;;;10.10
66403;BMP180;53212;52.112;5.144;2024-03-22T03:43:47;101780.00;;;10.20
66403;BMP180;53212;52.112;5.144;2024-03-22T03:46:13;101771.40;;;10.22
66403;BMP180;53212;52.112;5.144;2024-03-22T03:48:38;101777.40;;;10.26
66403;BMP180;53212;52.112;5.144;2024-03-22T03:51:05;101782.20;;;10.20
66403;BMP180;53212;52.112;5.144;2024-03-22T03:53:30;101774.80;;;10.20
66403;BMP180;53212;52.112;5.144;2024-03-22T03:55:56;101773.00;;;10.20
66403;BMP180;53212;52.112;5.144;2024-03-22T03:58:23;101778.20;;;10.10
66403;BMP180;53212;52.112;5.144;2024-03-22T04:00:48;101776.00;;;10.10
66403;BMP180;53212;52.112;5.144;2024-03-22T04:03:14;101774.80;;;10.10
66403;BMP180;53212;52.112;5.144;2024-03-22T04:05:39;101770.40;;;10.10
66403;BMP180;53212;52.112;5.144;2024-03-22T04:08:05;101764.20;;;10.10
66403;BMP180;53212;52.112;5.144;2024-03-22T04:10:30;101756.80;;;10.06
66403;BMP180;53212;52.112;5.144;2024-03-22T04:12:56;101755.40;;;10.00
66403;BMP180;53212;52.112;5.144;2024-03-22T04:15:21;101761.40;;;10.06
66403;BMP180;53212;52.112;5.144;2024-03-22T04:17:47;101760.80;;;10.08
66403;BMP180;53212;52.112;5.144;2024-03-22T04:20:12;101761.60;;;10.06
66403;BMP180;53212;52.112;5.144;2024-03-22T04:22:38;101755.60;;;10.00
66403;BMP180;53212;52.112;5.144;2024-03-22T04:25:04;101759.40;;;10.00
66403;BMP180;53212;52.112;5.144;2024-03-22T04:27:29;101767.80;;;10.00
66403;BMP180;53212;52.112;5.144;2024-03-22T04:29:55;101761.00;;;10.00
66403;BMP180;53212;52.112;5.144;2024-03-22T04:32:20;101766.40;;;10.00
66403;BMP180;53212;52.112;5.144;2024-03-22T04:34:46;101765.40;;;10.00
66403;BMP180;53212;52.112;5.144;2024-03-22T04:37:11;101766.40;;;10.00
66403;BMP180;53212;52.112;5.144;2024-03-22T04:39:38;101762.20;;;10.00
66403;BMP180;53212;52.112;5.144;2024-03-22T04:42:04;101761.20;;;10.00
66403;BMP180;53212;52.112;5.144;2024-03-22T04:44:29;101761.20;;;10.00
66403;BMP180;53212;52.112;5.144;2024-03-22T04:46:55;101766.60;;;10.00
66403;BMP180;53212;52.112;5.144;2024-03-22T04:49:20;101769.00;;;10.00
66403;BMP180;53212;52.112;5.144;2024-03-22T04:51:47;101765.20;;;10.00
66403;BMP180;53212;52.112;5.144;2024-03-22T04:54:12;101767.00;;;10.00
66403;BMP180;53212;52.112;5.144;2024-03-22T04:56:39;101771.00;;;10.00
66403;BMP180;53212;52.112;5.144;2024-03-22T04:59:05;101775.00;;;10.00
66403;BMP180;53212;52.112;5.144;2024-03-22T05:01:31;101769.20;;;10.00
66403;BMP180;53212;52.112;5.144;2024-03-22T05:03:56;101772.40;;;10.00
66403;BMP180;53212;52.112;5.144;2024-03-22T05:06:22;101776.20;;;10.00
66403;BMP180;53212;52.112;5.144;2024-03-22T05:08:47;101770.40;;;10.00
66403;BMP180;53212;52.112;5.144;2024-03-22T05:11:12;101766.60;;;10.00
66403;BMP180;53212;52.112;5.144;2024-03-22T05:13:38;101766.20;;;10.00
66403;BMP180;53212;52.112;5.144;2024-03-22T05:16:06;101763.80;;;10.00
66403;BMP180;53212;52.112;5.144;2024-03-22T05:18:31;101765.20;;;9.98
66403;BMP180;53212;52.112;5.144;2024-03-22T05:20:57;101760.60;;;9.94
66403;BMP180;53212;52.112;5.144;2024-03-22T05:23:22;101758.40;;;9.90
66403;BMP180;53212;52.112;5.144;2024-03-22T05:25:48;101764.20;;;9.90
66403;BMP180;53212;52.112;5.144;2024-03-22T05:28:13;101754.80;;;9.90
66403;BMP180;53212;52.112;5.144;2024-03-22T05:30:39;101749.60;;;9.90
66403;BMP180;53212;52.112;5.144;2024-03-22T05:33:04;101750.20;;;9.90
66403;BMP180;53212;52.112;5.144;2024-03-22T05:35:30;101745.20;;;9.90
66403;BMP180;53212;52.112;5.144;2024-03-22T05:37:56;101741.40;;;9.90
66403;BMP180;53212;52.112;5.144;2024-03-22T05:40:21;101741.60;;;9.86
66403;BMP180;53212;52.112;5.144;2024-03-22T05:42:47;101739.40;;;9.80
66403;BMP180;53212;52.112;5.144;2024-03-22T05:45:12;101735.60;;;9.80
66403;BMP180;53212;52.112;5.144;2024-03-22T05:47:38;101735.60;;;9.80
66403;BMP180;53212;52.112;5.144;2024-03-22T05:50:04;101729.20;;;9.80
66403;BMP180;53212;52.112;5.144;2024-03-22T05:52:33;101725.00;;;9.80
66403;BMP180;53212;52.112;5.144;2024-03-22T05:54:58;101724.60;;;9.80
66403;BMP180;53212;52.112;5.144;2024-03-22T05:57:24;101724.40;;;9.80
66403;BMP180;53212;52.112;5.144;2024-03-22T05:59:50;101725.40;;;9.80
66403;BMP180;53212;52.112;5.144;2024-03-22T06:02:15;101724.00;;;9.80
66403;BMP180;53212;52.112;5.144;2024-03-22T06:04:42;101718.20;;;9.80
66403;BMP180;53212;52.112;5.144;2024-03-22T06:07:07;101717.80;;;9.84
66403;BMP180;53212;52.112;5.144;2024-03-22T06:09:33;101711.20;;;9.86
66403;BMP180;53212;52.112;5.144;2024-03-22T06:12:05;101709.60;;;9.90
66403;BMP180;53212;52.112;5.144;2024-03-22T06:14:31;101705.20;;;9.90
66403;BMP180;53212;52.112;5.144;2024-03-22T06:16:57;101702.00;;;9.90
66403;BMP180;53212;52.112;5.144;2024-03-22T06:19:23;101705.00;;;10.00
66403;BMP180;53212;52.112;5.144;2024-03-22T06:21:49;101706.00;;;10.00
66403;BMP180;53212;52.112;5.144;2024-03-22T06:24:14;101700.20;;;10.00
66403;BMP180;53212;52.112;5.144;2024-03-22T06:26:40;101703.40;;;10.10
66403;BMP180;53212;52.112;5.144;2024-03-22T06:29:05;101700.20;;;10.10
66403;BMP180;53212;52.112;5.144;2024-03-22T06:31:31;101697.80;;;10.14
66403;BMP180;53212;52.112;5.144;2024-03-22T06:33:57;101702.20;;;10.20
66403;BMP180;53212;52.112;5.144;2024-03-22T06:36:29;101698.40;;;10.20
66403;BMP180;53212;52.112;5.144;2024-03-22T06:38:55;101704.00;;;10.20
66403;BMP180;53212;52.112;5.144;2024-03-22T06:41:20;101701.60;;;10.30
66403;BMP180;53212;52.112;5.144;2024-03-22T06:43:46;101703.20;;;10.30
66403;BMP180;53212;52.112;5.144;2024-03-22T06:46:12;101700.40;;;10.40
66403;BMP180;53212;52.112;5.144;2024-03-22T06:48:37;101704.00;;;10.50
66403;BMP180;53212;52.112;5.144;2024-03-22T06:51:03;101712.60;;;10.60
66403;BMP180;53212;52.112;5.144;2024-03-22T06:53:28;101711.20;;;10.70
66403;BMP180;53212;52.112;5.144;2024-03-22T06:55:54;101707.20;;;10.76
66403;BMP180;53212;52.112;5.144;2024-03-22T06:58:19;101703.00;;;10.80
66403;BMP180;53212;52.112;5.144;2024-03-22T07:00:45;101698.40;;;10.80
66403;BMP180;53212;52.112;5.144;2024-03-22T07:03:10;101702.20;;;10.80
66403;BMP180;53212;52.112;5.144;2024-03-22T07:05:35;101701.60;;;10.80
66403;BMP180;53212;52.112;5.144;2024-03-22T07:08:01;101698.40;;;10.76
66403;BMP180;53212;52.112;5.144;2024-03-22T07:10:26;101703.80;;;10.76
66403;BMP180;53212;52.112;5.144;2024-03-22T07:12:56;101699.40;;;10.74
66403;BMP180;53212;52.112;5.144;2024-03-22T07:15:23;101699.20;;;10.78
66403;BMP180;53212;52.112;5.144;2024-03-22T07:17:50;101696.40;;;10.78
66403;BMP180;53212;52.112;5.144;2024-03-22T07:20:16;101694.00;;;10.80
66403;BMP180;53212;52.112;5.144;2024-03-22T07:22:41;101696.40;;;10.80
66403;BMP180;53212;52.112;5.144;2024-03-22T07:25:07;101700.20;;;10.80
66403;BMP180;53212;52.112;5.144;2024-03-22T07:27:36;101699.40;;;10.80
66403;BMP180;53212;52.112;5.144;2024-03-22T07:30:02;101705.20;;;10.80
66403;BMP180;53212;52.112;5.144;2024-03-22T07:32:29;101704.00;;;10.80
66403;BMP180;53212;52.112;5.144;2024-03-22T07:34:55;101705.80;;;10.80
66403;BMP180;53212;52.112;5.144;2024-03-22T07:37:21;101706.40;;;10.82
66403;BMP180;53212;52.112;5.144;2024-03-22T07:39:46;101706.40;;;10.80
66403;BMP180;53212;52.112;5.144;2024-03-22T07:42:12;101705.00;;;10.80
66403;BMP180;53212;52.112;5.144;2024-03-22T07:44:37;101702.60;;;10.80
66403;BMP180;53212;52.112;5.144;2024-03-22T07:47:03;101707.40;;;10.80
66403;BMP180;53212;52.112;5.144;2024-03-22T07:49:28;101701.80;;;10.80
66403;BMP180;53212;52.112;5.144;2024-03-22T07:51:54;101704.00;;;10.80
66403;BMP180;53212;52.112;5.144;2024-03-22T07:54:20;101703.60;;;10.80
66403;BMP180;53212;52.112;5.144;2024-03-22T07:56:46;101703.20;;;10.80
66403;BMP180;53212;52.112;5.144;2024-03-22T07:59:11;101701.40;;;10.80
66403;BMP180;53212;52.112;5.144;2024-03-22T08:01:36;101697.80;;;10.80
66403;BMP180;53212;52.112;5.144;2024-03-22T08:04:02;101695.00;;;10.80
66403;BMP180;53212;52.112;5.144;2024-03-22T08:06:28;101694.20;;;10.80
66403;BMP180;53212;52.112;5.144;2024-03-22T08:08:53;101697.60;;;10.80
66403;BMP180;53212;52.112;5.144;2024-03-22T08:11:22;101702.00;;;10.80
66403;BMP180;53212;52.112;5.144;2024-03-22T08:13:47;101699.00;;;10.80
66403;BMP180;53212;52.112;5.144;2024-03-22T08:16:13;101697.20;;;10.70
66403;BMP180;53212;52.112;5.144;2024-03-22T08:18:38;101696.40;;;10.62
66403;BMP180;53212;52.112;5.144;2024-03-22T08:21:04;101692.60;;;10.60
66403;BMP180;53212;52.112;5.144;2024-03-22T08:23:30;101698.20;;;10.56
66403;BMP180;53212;52.112;5.144;2024-03-22T08:25:55;101705.00;;;10.50
66403;BMP180;53212;52.112;5.144;2024-03-22T08:28:22;101709.00;;;10.40
66403;BMP180;53212;52.112;5.144;2024-03-22T08:30:48;101704.80;;;10.40
66403;BMP180;53212;52.112;5.144;2024-03-22T08:33:14;101705.60;;;10.32
66403;BMP180;53212;52.112;5.144;2024-03-22T08:35:39;101700.80;;;10.30
66403;BMP180;53212;52.112;5.144;2024-03-22T08:38:05;101703.00;;;10.36
66403;BMP180;53212;52.112;5.144;2024-03-22T08:40:39;101701.80;;;10.40
66403;BMP180;53212;52.112;5.144;2024-03-22T08:43:07;101703.00;;;10.34
66403;BMP180;53212;52.112;5.144;2024-03-22T08:45:34;101697.80;;;10.30
66403;BMP180;53212;52.112;5.144;2024-03-22T08:47:59;101697.60;;;10.30
66403;BMP180;53212;52.112;5.144;2024-03-22T08:50:25;101692.20;;;10.30
66403;BMP180;53212;52.112;5.144;2024-03-22T08:52:50;101694.60;;;10.30
66403;BMP180;53212;52.112;5.144;2024-03-22T08:55:16;101687.60;;;10.40
66403;BMP180;53212;52.112;5.144;2024-03-22T08:57:42;101693.40;;;10.30
66403;BMP180;53212;52.112;5.144;2024-03-22T09:00:10;101688.00;;;10.30
66403;BMP180;53212;52.112;5.144;2024-03-22T09:02:36;101692.00;;;10.30
66403;BMP180;53212;52.112;5.144;2024-03-22T09:05:04;101685.80;;;10.36
66403;BMP180;53212;52.112;5.144;2024-03-22T09:07:29;101677.20;;;10.40
66403;BMP180;53212;52.112;5.144;2024-03-22T09:09:55;101677.60;;;10.50
66403;BMP180;53212;52.112;5.144;2024-03-22T09:12:21;101684.60;;;10.60
66403;BMP180;53212;52.112;5.144;2024-03-22T09:14:46;101689.00;;;10.60
66403;BMP180;53212;52.112;5.144;2024-03-22T09:17:12;101686.80;;;10.60
66403;BMP180;53212;52.112;5.144;2024-03-22T09:19:37;101689.80;;;10.56
66403;BMP180;53212;52.112;5.144;2024-03-22T09:22:02;101686.00;;;10.60
66403;BMP180;53212;52.112;5.144;2024-03-22T09:24:28;101685.40;;;10.60
66403;BMP180;53212;52.112;5.144;2024-03-22T09:26:54;101689.40;;;10.60
66403;BMP180;53212;52.112;5.144;2024-03-22T09:29:19;101686.80;;;10.50
66403;BMP180;53212;52.112;5.144;2024-03-22T09:31:45;101685.80;;;10.60
66403;BMP180;53212;52.112;5.144;2024-03-22T09:34:12;101683.40;;;10.60
66403;BMP180;53212;52.112;5.144;2024-03-22T09:36:38;101682.80;;;10.60
66403;BMP180;53212;52.112;5.144;2024-03-22T09:39:04;101684.20;;;10.60
66403;BMP180;53212;52.112;5.144;2024-03-22T09:41:32;101681.20;;;10.56
66403;BMP180;53212;52.112;5.144;2024-03-22T09:43:59;101676.60;;;10.50
66403;BMP180;53212;52.112;5.144;2024-03-22T09:46:27;101680.20;;;10.56
66403;BMP180;53212;52.112;5.144;2024-03-22T09:48:54;101676.20;;;10.50
66403;BMP180;53212;52.112;5.144;2024-03-22T09:51:21;101678.00;;;10.50
66403;BMP180;53212;52.112;5.144;2024-03-22T09:53:48;101676.60;;;10.50
66403;BMP180;53212;52.112;5.144;2024-03-22T09:56:15;101673.60;;;10.50
66403;BMP180;53212;52.112;5.144;2024-03-22T09:58:42;101684.20;;;10.58
66403;BMP180;53212;52.112;5.144;2024-03-22T10:01:07;101677.80;;;10.58
66403;BMP180;53212;52.112;5.144;2024-03-22T10:03:33;101673.60;;;10.52
66403;BMP180;53212;52.112;5.144;2024-03-22T10:05:59;101669.00;;;10.58
66403;BMP180;53212;52.112;5.144;2024-03-22T10:08:24;101667.40;;;10.60
66403;BMP180;53212;52.112;5.144;2024-03-22T10:10:50;101664.00;;;10.50
66403;BMP180;53212;52.112;5.144;2024-03-22T10:13:16;101657.20;;;10.50
66403;BMP180;53212;52.112;5.144;2024-03-22T10:15:41;101658.00;;;10.50
66403;BMP180;53212;52.112;5.144;2024-03-22T10:18:06;101653.60;;;10.58
66403;BMP180;53212;52.112;5.144;2024-03-22T10:20:33;101652.20;;;10.60
66403;BMP180;53212;52.112;5.144;2024-03-22T10:22:59;101659.60;;;10.56
66403;BMP180;53212;52.112;5.144;2024-03-22T10:25:29;101659.40;;;10.50
66403;BMP180;53212;52.112;5.144;2024-03-22T10:27:55;101661.00;;;10.60
66403;BMP180;53212;52.112;5.144;2024-03-22T10:30:22;101659.00;;;10.64
66403;BMP180;53212;52.112;5.144;2024-03-22T10:32:48;101659.80;;;10.70
66403;BMP180;53212;52.112;5.144;2024-03-22T10:35:15;101668.20;;;10.80
66403;BMP180;53212;52.112;5.144;2024-03-22T10:37:42;101664.20;;;10.82
66403;BMP180;53212;52.112;5.144;2024-03-22T10:40:08;101662.40;;;11.00
66403;BMP180;53212;52.112;5.144;2024-03-22T10:42:39;101666.60;;;11.00
66403;BMP180;53212;52.112;5.144;2024-03-22T10:45:08;101665.20;;;11.10
66403;BMP180;53212;52.112;5.144;2024-03-22T10:47:36;101663.60;;;11.10
66403;BMP180;53212;52.112;5.144;2024-03-22T10:50:10;101660.80;;;11.00
66403;BMP180;53212;52.112;5.144;2024-03-22T10:52:52;101657.80;;;11.00
66403;BMP180;53212;52.112;5.144;2024-03-22T10:55:28;101665.00;;;11.00
66403;BMP180;53212;52.112;5.144;2024-03-22T10:57:57;101664.20;;;11.00
66403;BMP180;53212;52.112;5.144;2024-03-22T11:00:34;101658.60;;;11.04
66403;BMP180;53212;52.112;5.144;2024-03-22T11:03:04;101664.80;;;11.10
66403;BMP180;53212;52.112;5.144;2024-03-22T11:05:30;101651.80;;;11.22
66403;BMP180;53212;52.112;5.144;2024-03-22T11:08:04;101654.40;;;11.24
66403;BMP180;53212;52.112;5.144;2024-03-22T11:10:34;101655.40;;;11.30
66403;BMP180;53212;52.112;5.144;2024-03-22T11:13:07;101653.00;;;11.30
66403;BMP180;53212;52.112;5.144;2024-03-22T11:15:33;101648.80;;;11.20
66403;BMP180;53212;52.112;5.144;2024-03-22T11:18:00;101644.60;;;11.30
66403;BMP180;53212;52.112;5.144;2024-03-22T11:20:27;101645.00;;;11.30
66403;BMP180;53212;52.112;5.144;2024-03-22T11:22:53;101648.00;;;11.40
66403;BMP180;53212;52.112;5.144;2024-03-22T11:25:19;101646.20;;;11.40
66403;BMP180;53212;52.112;5.144;2024-03-22T11:27:46;101640.80;;;11.40
66403;BMP180;53212;52.112;5.144;2024-03-22T11:30:12;101639.40;;;11.36
66403;BMP180;53212;52.112;5.144;2024-03-22T11:32:39;101629.40;;;11.30
66403;BMP180;53212;52.112;5.144;2024-03-22T11:35:13;101632.20;;;11.30
66403;BMP180;53212;52.112;5.144;2024-03-22T11:37:42;101625.80;;;11.30
66403;BMP180;53212;52.112;5.144;2024-03-22T11:40:11;101621.60;;;11.30
66403;BMP180;53212;52.112;5.144;2024-03-22T11:42:42;101623.60;;;11.50
66403;BMP180;53212;52.112;5.144;2024-03-22T11:45:10;101622.00;;;11.60
66403;BMP180;53212;52.112;5.144;2024-03-22T11:47:36;101623.40;;;11.60
66403;BMP180;53212;52.112;5.144;2024-03-22T11:50:02;101622.80;;;11.60
66403;BMP180;53212;52.112;5.144;2024-03-22T11:52:29;101625.40;;;11.40
66403;BMP180;53212;52.112;5.144;2024-03-22T11:54:55;101620.80;;;11.26
66403;BMP180;53212;52.112;5.144;2024-03-22T11:57:21;101618.40;;;11.20
66403;BMP180;53212;52.112;5.144;2024-03-22T11:59:47;101621.60;;;11.10
66403;BMP180;53212;52.112;5.144;2024-03-22T12:02:13;101612.60;;;11.10
66403;BMP180;53212;52.112;5.144;2024-03-22T12:04:44;101609.60;;;11.10
66403;BMP180;53212;52.112;5.144;2024-03-22T12:07:14;101608.80;;;11.00
66403;BMP180;53212;52.112;5.144;2024-03-22T12:09:41;101603.80;;;10.90
66403;BMP180;53212;52.112;5.144;2024-03-22T12:12:09;101603.40;;;10.90
66403;BMP180;53212;52.112;5.144;2024-03-22T12:14:35;101618.40;;;10.80
66403;BMP180;53212;52.112;5.144;2024-03-22T12:17:05;101615.80;;;10.80
66403;BMP180;53212;52.112;5.144;2024-03-22T12:19:31;101610.80;;;10.90
66403;BMP180;53212;52.112;5.144;2024-03-22T12:21:57;101608.60;;;10.96
66403;BMP180;53212;52.112;5.144;2024-03-22T12:24:23;101609.60;;;11.00
66403;BMP180;53212;52.112;5.144;2024-03-22T12:26:49;101599.80;;;10.92
66403;BMP180;53212;52.112;5.144;2024-03-22T12:29:18;101596.60;;;10.92
66403;BMP180;53212;52.112;5.144;2024-03-22T12:31:44;101596.40;;;10.98
66403;BMP180;53212;52.112;5.144;2024-03-22T12:34:10;101588.40;;;11.00
66403;BMP180;53212;52.112;5.144;2024-03-22T12:36:35;101585.40;;;11.00
66403;BMP180;53212;52.112;5.144;2024-03-22T12:39:01;101583.60;;;11.00
66403;BMP180;53212;52.112;5.144;2024-03-22T12:41:27;101583.40;;;10.90
66403;BMP180;53212;52.112;5.144;2024-03-22T12:43:54;101580.80;;;10.98
66403;BMP180;53212;52.112;5.144;2024-03-22T12:46:20;101577.40;;;10.92
66403;BMP180;53212;52.112;5.144;2024-03-22T12:48:45;101584.80;;;10.92
66403;BMP180;53212;52.112;5.144;2024-03-22T12:51:11;101581.80;;;11.00
66403;BMP180;53212;52.112;5.144;2024-03-22T12:53:37;101578.60;;;11.10
66403;BMP180;53212;52.112;5.144;2024-03-22T12:56:03;101577.20;;;11.20
66403;BMP180;53212;52.112;5.144;2024-03-22T12:58:30;101567.80;;;11.30
66403;BMP180;53212;52.112;5.144;2024-03-22T13:00:57;101568.40;;;11.40
66403;BMP180;53212;52.112;5.144;2024-03-22T13:03:23;101570.00;;;11.40
66403;BMP180;53212;52.112;5.144;2024-03-22T13:05:49;101570.40;;;11.42
66403;BMP180;53212;52.112;5.144;2024-03-22T13:08:14;101569.00;;;11.40
66403;BMP180;53212;52.112;5.144;2024-03-22T13:10:40;101562.60;;;11.30
66403;BMP180;53212;52.112;5.144;2024-03-22T13:13:09;101557.40;;;11.36
66403;BMP180;53212;52.112;5.144;2024-03-22T13:15:34;101564.00;;;11.30
66403;BMP180;53212;52.112;5.144;2024-03-22T13:18:02;101557.20;;;11.20
66403;BMP180;53212;52.112;5.144;2024-03-22T13:20:28;101554.80;;;11.24
66403;BMP180;53212;52.112;5.144;2024-03-22T13:22:53;101552.00;;;11.34
66403;BMP180;53212;52.112;5.144;2024-03-22T13:25:18;101546.80;;;11.50
66403;BMP180;53212;52.112;5.144;2024-03-22T13:27:44;101541.60;;;11.62
66403;BMP180;53212;52.112;5.144;2024-03-22T13:30:10;101541.60;;;11.56
66403;BMP180;53212;52.112;5.144;2024-03-22T13:32:37;101534.60;;;11.60
66403;BMP180;53212;52.112;5.144;2024-03-22T13:35:03;101538.80;;;11.50
66403;BMP180;53212;52.112;5.144;2024-03-22T13:37:29;101531.40;;;11.50
66403;BMP180;53212;52.112;5.144;2024-03-22T13:39:54;101527.80;;;11.60
66403;BMP180;53212;52.112;5.144;2024-03-22T13:42:20;101526.00;;;11.70
66403;BMP180;53212;52.112;5.144;2024-03-22T13:44:45;101523.20;;;11.70
66403;BMP180;53212;52.112;5.144;2024-03-22T13:47:11;101521.80;;;11.68
66403;BMP180;53212;52.112;5.144;2024-03-22T13:49:36;101522.00;;;11.60